CLT TRACON Summary / KCLT TAF
CLT TRACON Summary:
High pressure centered off the Mid-Atlantic Coast will continue to dominate the TRACON with mostly clear skies this morning, but FEW/SCT040-060 clouds will move develop over the TRACON by 14-16z. Surface winds will be southeast to south at 3-8kts. Flight Hazards in the TRACON airspace: none expected.

Updated: 5/25/2015 6:14 AM
CLT Terminal Aerodrome Forecast:

FTUS42 KGSP 251433 AAA
TAFCLT
TAF AMD
KCLT 251433Z 2515/2612 18008KT P6SM SCT030
     FM251700 18010KT P6SM SCT040 BKN250
     FM252300 16009KT P6SM BKN050
     FM260400 15008KT P6SM BKN015
     FM260600 16007KT P6SM BKN008=
CLT TRACON Area Remark:
NONE.
Convective Gate Forecast / Collaborative Convective Forecast Product / Vertical Wind Profile
Convective Gate Forecast
-->
AIRMETs & SIGMETS/ Southeast Radar loop / Satellite Image (click on image to enlarge)

Southeast Radar Loop

 



USA.gov is the U.S. government's official web portal to all federal, state and local government web resources and services.